sensor_id;sensor_type;location;lat;lon;timestamp;P1;durP1;ratioP1;P2;durP2;ratioP2
72621;SDS011;60665;53.506;9.582;2023-02-01T05:00:13;8.20;;;1.60;;
72621;SDS011;60665;53.506;9.582;2023-02-01T05:02:38;9.45;;;1.25;;
72621;SDS011;60665;53.506;9.582;2023-02-01T05:05:04;5.68;;;1.20;;
72621;SDS011;60665;53.506;9.582;2023-02-01T05:07:30;5.43;;;1.25;;
72621;SDS011;60665;53.506;9.582;2023-02-01T05:09:55;6.05;;;1.15;;
72621;SDS011;60665;53.506;9.582;2023-02-01T05:12:21;5.20;;;0.80;;
72621;SDS011;60665;53.506;9.582;2023-02-01T05:15:05;2.75;;;0.45;;
72621;SDS011;60665;53.506;9.582;2023-02-01T05:17:31;4.35;;;0.82;;
72621;SDS011;60665;53.506;9.582;2023-02-01T05:19:57;0.80;;;0.25;;
72621;SDS011;60665;53.506;9.582;2023-02-01T05:22:23;2.65;;;0.60;;
72621;SDS011;60665;53.506;9.582;2023-02-01T05:24:48;2.25;;;0.63;;
72621;SDS011;60665;53.506;9.582;2023-02-01T05:27:14;1.08;;;0.35;;
72621;SDS011;60665;53.506;9.582;2023-02-01T05:29:39;3.35;;;0.57;;
72621;SDS011;60665;53.506;9.582;2023-02-01T05:32:04;0.95;;;0.32;;
72621;SDS011;60665;53.506;9.582;2023-02-01T05:34:30;2.38;;;0.80;;
72621;SDS011;60665;53.506;9.582;2023-02-01T05:36:55;4.35;;;0.77;;
72621;SDS011;60665;53.506;9.582;2023-02-01T05:39:21;2.83;;;0.63;;
72621;SDS011;60665;53.506;9.582;2023-02-01T05:41:46;3.25;;;0.82;;
72621;SDS011;60665;53.506;9.582;2023-02-01T05:44:11;5.22;;;0.73;;
72621;SDS011;60665;53.506;9.582;2023-02-01T05:46:37;2.63;;;0.65;;
72621;SDS011;60665;53.506;9.582;2023-02-01T05:49:03;2.92;;;0.70;;
72621;SDS011;60665;53.506;9.582;2023-02-01T05:51:29;6.45;;;1.08;;
72621;SDS011;60665;53.506;9.582;2023-02-01T05:53:54;7.65;;;0.93;;
72621;SDS011;60665;53.506;9.582;2023-02-01T05:56:20;4.07;;;0.93;;
72621;SDS011;60665;53.506;9.582;2023-02-01T05:58:45;3.95;;;0.60;;
72621;SDS011;60665;53.506;9.582;2023-02-01T06:01:12;7.43;;;1.55;;
72621;SDS011;60665;53.506;9.582;2023-02-01T06:03:38;8.98;;;1.30;;
72621;SDS011;60665;53.506;9.582;2023-02-01T06:06:04;5.43;;;1.02;;
72621;SDS011;60665;53.506;9.582;2023-02-01T06:08:29;2.72;;;0.90;;
72621;SDS011;60665;53.506;9.582;2023-02-01T06:11:02;7.50;;;1.75;;
72621;SDS011;60665;53.506;9.582;2023-02-01T06:13:29;6.00;;;0.80;;
72621;SDS011;60665;53.506;9.582;2023-02-01T06:15:55;5.65;;;1.27;;
72621;SDS011;60665;53.506;9.582;2023-02-01T06:18:22;8.45;;;1.45;;
72621;SDS011;60665;53.506;9.582;2023-02-01T06:20:54;5.80;;;1.10;;
72621;SDS011;60665;53.506;9.582;2023-02-01T06:23:23;10.68;;;1.20;;
72621;SDS011;60665;53.506;9.582;2023-02-01T06:25:49;9.82;;;1.30;;
72621;SDS011;60665;53.506;9.582;2023-02-01T06:28:24;13.82;;;1.55;;
72621;SDS011;60665;53.506;9.582;2023-02-01T06:30:50;7.47;;;1.40;;
72621;SDS011;60665;53.506;9.582;2023-02-01T06:33:15;10.00;;;1.50;;
72621;SDS011;60665;53.506;9.582;2023-02-01T06:35:41;10.75;;;1.50;;
72621;SDS011;60665;53.506;9.582;2023-02-01T06:38:12;7.43;;;1.23;;
72621;SDS011;60665;53.506;9.582;2023-02-01T06:40:38;11.55;;;1.58;;
72621;SDS011;60665;53.506;9.582;2023-02-01T06:43:04;11.32;;;1.45;;
72621;SDS011;60665;53.506;9.582;2023-02-01T06:45:30;11.55;;;1.48;;
72621;SDS011;60665;53.506;9.582;2023-02-01T06:47:55;13.20;;;1.60;;
72621;SDS011;60665;53.506;9.582;2023-02-01T06:50:21;12.13;;;2.05;;
72621;SDS011;60665;53.506;9.582;2023-02-01T06:52:49;14.77;;;2.28;;
72621;SDS011;60665;53.506;9.582;2023-02-01T06:55:14;17.65;;;2.05;;
72621;SDS011;60665;53.506;9.582;2023-02-01T06:57:40;15.32;;;1.80;;
72621;SDS011;60665;53.506;9.582;2023-02-01T07:00:05;18.08;;;3.00;;
72621;SDS011;60665;53.506;9.582;2023-02-01T07:02:34;22.05;;;2.55;;
72621;SDS011;60665;53.506;9.582;2023-02-01T07:05:00;19.90;;;2.80;;
72621;SDS011;60665;53.506;9.582;2023-02-01T16:29:05;21.85;;;1.80;;
72621;SDS011;60665;53.506;9.582;2023-02-01T16:31:37;20.60;;;2.67;;
72621;SDS011;60665;53.506;9.582;2023-02-01T16:34:03;22.73;;;3.40;;
72621;SDS011;60665;53.506;9.582;2023-02-01T16:36:30;21.13;;;2.65;;
72621;SDS011;60665;53.506;9.582;2023-02-01T16:38:56;26.98;;;3.58;;
72621;SDS011;60665;53.506;9.582;2023-02-01T16:41:22;20.67;;;3.15;;
72621;SDS011;60665;53.506;9.582;2023-02-01T16:43:52;25.23;;;3.30;;
72621;SDS011;60665;53.506;9.582;2023-02-01T16:46:19;19.50;;;3.78;;
72621;SDS011;60665;53.506;9.582;2023-02-01T16:49:22;23.63;;;2.97;;
72621;SDS011;60665;53.506;9.582;2023-02-01T16:51:46;20.42;;;2.85;;
72621;SDS011;60665;53.506;9.582;2023-02-01T16:54:14;17.48;;;2.40;;
72621;SDS011;60665;53.506;9.582;2023-02-01T16:56:41;26.05;;;2.85;;
72621;SDS011;60665;53.506;9.582;2023-02-01T16:59:08;32.33;;;3.72;;
72621;SDS011;60665;53.506;9.582;2023-02-01T17:01:34;22.05;;;2.97;;
72621;SDS011;60665;53.506;9.582;2023-02-01T17:04:02;29.45;;;3.60;;
72621;SDS011;60665;53.506;9.582;2023-02-01T17:06:28;24.02;;;2.92;;
72621;SDS011;60665;53.506;9.582;2023-02-01T17:08:54;21.85;;;2.60;;
72621;SDS011;60665;53.506;9.582;2023-02-01T17:11:22;21.33;;;3.13;;
72621;SDS011;60665;53.506;9.582;2023-02-01T17:13:48;19.05;;;2.83;;
72621;SDS011;60665;53.506;9.582;2023-02-01T17:16:30;15.30;;;2.10;;
72621;SDS011;60665;53.506;9.582;2023-02-01T17:18:57;15.25;;;1.85;;
72621;SDS011;60665;53.506;9.582;2023-02-01T17:21:25;21.10;;;2.53;;
72621;SDS011;60665;53.506;9.582;2023-02-01T17:23:52;14.50;;;2.53;;
72621;SDS011;60665;53.506;9.582;2023-02-01T17:26:18;16.48;;;1.95;;
72621;SDS011;60665;53.506;9.582;2023-02-01T17:28:43;20.80;;;2.70;;
72621;SDS011;60665;53.506;9.582;2023-02-01T17:31:12;16.60;;;2.45;;
72621;SDS011;60665;53.506;9.582;2023-02-01T17:33:39;16.48;;;1.90;;
72621;SDS011;60665;53.506;9.582;2023-02-01T17:36:05;24.17;;;3.63;;
72621;SDS011;60665;53.506;9.582;2023-02-01T17:38:31;18.15;;;3.72;;
72621;SDS011;60665;53.506;9.582;2023-02-01T17:40:58;20.23;;;4.70;;
72621;SDS011;60665;53.506;9.582;2023-02-01T17:43:24;19.98;;;4.93;;
72621;SDS011;60665;53.506;9.582;2023-02-01T17:48:50;22.20;;;3.08;;
72621;SDS011;60665;53.506;9.582;2023-02-01T17:51:16;19.83;;;3.17;;
72621;SDS011;60665;53.506;9.582;2023-02-01T17:53:43;18.17;;;2.65;;
72621;SDS011;60665;53.506;9.582;2023-02-01T17:56:20;25.75;;;2.88;;
72621;SDS011;60665;53.506;9.582;2023-02-01T17:58:46;19.65;;;2.55;;
72621;SDS011;60665;53.506;9.582;2023-02-01T18:01:20;20.58;;;2.33;;
72621;SDS011;60665;53.506;9.582;2023-02-01T18:03:47;20.65;;;2.53;;
72621;SDS011;60665;53.506;9.582;2023-02-01T18:06:23;16.52;;;1.92;;
72621;SDS011;60665;53.506;9.582;2023-02-01T18:08:52;13.13;;;2.22;;
72621;SDS011;60665;53.506;9.582;2023-02-01T18:11:19;25.08;;;3.22;;
72621;SDS011;60665;53.506;9.582;2023-02-01T18:13:45;20.30;;;2.53;;
72621;SDS011;60665;53.506;9.582;2023-02-01T18:18:43;17.75;;;2.28;;
72621;SDS011;60665;53.506;9.582;2023-02-01T18:21:09;19.55;;;3.28;;
72621;SDS011;60665;53.506;9.582;2023-02-01T18:23:34;20.83;;;2.65;;
72621;SDS011;60665;53.506;9.582;2023-02-01T18:26:00;26.90;;;2.80;;
72621;SDS011;60665;53.506;9.582;2023-02-01T18:28:25;22.95;;;3.00;;
72621;SDS011;60665;53.506;9.582;2023-02-01T18:30:51;22.33;;;3.40;;
72621;SDS011;60665;53.506;9.582;2023-02-01T18:33:17;19.75;;;2.50;;
72621;SDS011;60665;53.506;9.582;2023-02-01T18:35:44;23.25;;;3.00;;
72621;SDS011;60665;53.506;9.582;2023-02-01T18:38:09;23.08;;;2.45;;
72621;SDS011;60665;53.506;9.582;2023-02-01T18:40:36;18.13;;;2.60;;
72621;SDS011;60665;53.506;9.582;2023-02-01T18:43:14;16.75;;;2.58;;
72621;SDS011;60665;53.506;9.582;2023-02-01T18:45:43;24.45;;;3.30;;
72621;SDS011;60665;53.506;9.582;2023-02-01T18:48:10;21.25;;;2.80;;
72621;SDS011;60665;53.506;9.582;2023-02-01T18:50:37;22.70;;;2.53;;
72621;SDS011;60665;53.506;9.582;2023-02-01T18:53:07;24.10;;;2.88;;
72621;SDS011;60665;53.506;9.582;2023-02-01T18:55:36;22.27;;;2.67;;
72621;SDS011;60665;53.506;9.582;2023-02-01T18:58:02;12.18;;;2.17;;
72621;SDS011;60665;53.506;9.582;2023-02-01T19:00:28;19.35;;;2.65;;
72621;SDS011;60665;53.506;9.582;2023-02-01T19:02:54;16.80;;;2.78;;
72621;SDS011;60665;53.506;9.582;2023-02-01T19:05:20;17.60;;;3.13;;
72621;SDS011;60665;53.506;9.582;2023-02-01T19:07:45;16.10;;;2.40;;
72621;SDS011;60665;53.506;9.582;2023-02-01T19:10:12;24.52;;;2.22;;
72621;SDS011;60665;53.506;9.582;2023-02-01T19:12:39;17.23;;;2.30;;
72621;SDS011;60665;53.506;9.582;2023-02-01T19:15:05;17.02;;;2.42;;
72621;SDS011;60665;53.506;9.582;2023-02-01T19:17:36;16.45;;;2.17;;
72621;SDS011;60665;53.506;9.582;2023-02-01T19:20:02;24.48;;;2.80;;
72621;SDS011;60665;53.506;9.582;2023-02-01T19:22:28;19.05;;;2.95;;
72621;SDS011;60665;53.506;9.582;2023-02-01T19:24:54;24.75;;;2.72;;
72621;SDS011;60665;53.506;9.582;2023-02-01T19:27:19;19.48;;;2.58;;
72621;SDS011;60665;53.506;9.582;2023-02-01T19:29:45;23.02;;;2.95;;
72621;SDS011;60665;53.506;9.582;2023-02-01T19:32:11;17.20;;;2.50;;
72621;SDS011;60665;53.506;9.582;2023-02-01T19:34:37;22.50;;;3.08;;
72621;SDS011;60665;53.506;9.582;2023-02-01T19:37:03;19.58;;;2.92;;
72621;SDS011;60665;53.506;9.582;2023-02-01T19:39:30;24.77;;;3.17;;
72621;SDS011;60665;53.506;9.582;2023-02-01T19:41:55;18.48;;;2.90;;
72621;SDS011;60665;53.506;9.582;2023-02-01T19:44:23;21.40;;;3.80;;
72621;SDS011;60665;53.506;9.582;2023-02-01T19:46:48;23.70;;;4.07;;
72621;SDS011;60665;53.506;9.582;2023-02-01T19:49:14;22.90;;;3.42;;
72621;SDS011;60665;53.506;9.582;2023-02-01T19:51:39;20.00;;;3.05;;
72621;SDS011;60665;53.506;9.582;2023-02-01T19:54:07;25.25;;;2.88;;
72621;SDS011;60665;53.506;9.582;2023-02-01T19:56:33;22.08;;;2.83;;
72621;SDS011;60665;53.506;9.582;2023-02-01T19:58:59;22.45;;;3.45;;
72621;SDS011;60665;53.506;9.582;2023-02-01T20:01:25;30.92;;;3.75;;
72621;SDS011;60665;53.506;9.582;2023-02-01T20:03:51;25.63;;;3.30;;
72621;SDS011;60665;53.506;9.582;2023-02-01T20:06:17;24.13;;;2.53;;
72621;SDS011;60665;53.506;9.582;2023-02-01T20:08:42;20.67;;;2.30;;
72621;SDS011;60665;53.506;9.582;2023-02-01T20:11:08;22.05;;;2.97;;
72621;SDS011;60665;53.506;9.582;2023-02-01T20:13:33;25.63;;;3.30;;
72621;SDS011;60665;53.506;9.582;2023-02-01T20:16:00;20.27;;;2.85;;
72621;SDS011;60665;53.506;9.582;2023-02-01T20:18:26;26.77;;;2.83;;
72621;SDS011;60665;53.506;9.582;2023-02-01T20:20:55;17.90;;;2.50;;
72621;SDS011;60665;53.506;9.582;2023-02-01T20:23:22;22.52;;;2.63;;
72621;SDS011;60665;53.506;9.582;2023-02-01T20:25:47;26.42;;;3.10;;
72621;SDS011;60665;53.506;9.582;2023-02-01T20:28:13;23.67;;;2.85;;
72621;SDS011;60665;53.506;9.582;2023-02-01T20:30:38;22.80;;;2.78;;
72621;SDS011;60665;53.506;9.582;2023-02-01T20:33:04;18.77;;;2.67;;
72621;SDS011;60665;53.506;9.582;2023-02-01T20:35:29;29.15;;;3.38;;
72621;SDS011;60665;53.506;9.582;2023-02-01T20:37:55;21.42;;;2.95;;
72621;SDS011;60665;53.506;9.582;2023-02-01T20:40:26;22.38;;;2.78;;
72621;SDS011;60665;53.506;9.582;2023-02-01T20:42:52;18.55;;;2.08;;
72621;SDS011;60665;53.506;9.582;2023-02-01T20:45:21;21.60;;;2.85;;
72621;SDS011;60665;53.506;9.582;2023-02-01T20:47:50;19.08;;;2.33;;
72621;SDS011;60665;53.506;9.582;2023-02-01T20:50:17;19.23;;;2.97;;
72621;SDS011;60665;53.506;9.582;2023-02-01T20:52:43;16.80;;;2.55;;
72621;SDS011;60665;53.506;9.582;2023-02-01T20:55:08;18.65;;;2.65;;
72621;SDS011;60665;53.506;9.582;2023-02-01T20:57:34;24.38;;;4.20;;
72621;SDS011;60665;53.506;9.582;2023-02-01T20:59:59;27.65;;;2.92;;
72621;SDS011;60665;53.506;9.582;2023-02-01T21:02:24;24.67;;;2.75;;
72621;SDS011;60665;53.506;9.582;2023-02-01T21:04:50;16.33;;;2.47;;
72621;SDS011;60665;53.506;9.582;2023-02-01T21:07:15;22.70;;;3.90;;
72621;SDS011;60665;53.506;9.582;2023-02-01T21:09:41;16.92;;;2.15;;
72621;SDS011;60665;53.506;9.582;2023-02-01T21:12:07;24.85;;;2.80;;
72621;SDS011;60665;53.506;9.582;2023-02-01T21:14:33;21.50;;;3.10;;
72621;SDS011;60665;53.506;9.582;2023-02-01T21:16:59;24.95;;;3.10;;
72621;SDS011;60665;53.506;9.582;2023-02-01T21:19:24;27.00;;;2.92;;
72621;SDS011;60665;53.506;9.582;2023-02-01T21:21:50;27.65;;;2.97;;
72621;SDS011;60665;53.506;9.582;2023-02-01T21:24:17;26.25;;;3.45;;
72621;SDS011;60665;53.506;9.582;2023-02-01T21:26:43;20.33;;;2.58;;
72621;SDS011;60665;53.506;9.582;2023-02-01T21:29:10;25.45;;;2.40;;
72621;SDS011;60665;53.506;9.582;2023-02-01T21:31:39;16.73;;;2.10;;
72621;SDS011;60665;53.506;9.582;2023-02-01T21:34:06;24.08;;;2.92;;
